• Join FlightAware (Why Join?)
  • Login
  • US Flag 
02:39AM EDT


 

Airport Tracker/Info


-or-


 

Live Flight TrackerFlight Track Log ✈ UCA3597 ✈ 07-Dec-2013 ✈ KBGM - KIAD

Flight Track Log - Related Links

Times and Time Zones

All times are in EST time to prevent confusion due to time zone crossing. See the UCA3597 flight status page for this flight to view local times or setup timezone preferences in your user account.

Time Position Orientation Groundspeed Altitude Reporting Facility
EST Latitude Longitude Course Direction KTS MPH feet Rate Location/Type
07:11PM 42.2339 -76.0278 297° West 258 297 4,000  Level New York Center
07:12PM 42.2525 -76.0769 297° West 155 178 6,100 2,040 Climbing New York Center
07:13PM 42.2133 -76.1156 216° Southwest 137 158 8,100 2,160 Climbing New York Center
07:14PM 42.1703 -76.1458 208° Southwest 144 166 10,500 1,920 Climbing New York Center
07:15PM 42.1272 -76.1758 207° Southwest 165 190 12,000 1,500 Climbing New York Center
07:16PM 42.0883 -76.2061 210° Southwest 172 198 13,600 960 Climbing New York Center
07:17PM 42.0431 -76.2414 210° Southwest 181 208 14,000 180 Climbing New York Center
07:18PM 41.9933 -76.2792 209° Southwest 206 237 14,000  Level New York Center
07:19PM 41.9308 -76.3269 210° Southwest 236 272 14,000  Level New York Center
07:20PM 41.8747 -76.3697 210° Southwest 236 272 14,000  Level New York Center
07:21PM 41.8183 -76.4150 211° Southwest 236 272 14,000  Level New York Center
07:22PM 41.7731 -76.4472 208° Southwest 241 277 14,000  Level New York Center
07:23PM 41.7083 -76.4947 209° Southwest 235 270 14,000  Level New York Center
07:24PM 41.6564 -76.5347 210° Southwest 228 262 14,000  Level New York Center
07:25PM 41.6044 -76.5744 210° Southwest 228 262 14,000  Level New York Center
07:26PM 41.5569 -76.6092 209° Southwest 228 262 14,000  Level New York Center
07:27PM 41.5050 -76.6492 210° Southwest 228 262 14,000  Level New York Center
07:28PM 41.4489 -76.6911 209° Southwest 221 254 14,000  Level New York Center
07:29PM 41.3947 -76.7333 210° Southwest 221 254 14,000  Level New York Center
07:30PM 41.3425 -76.7731 210° Southwest 221 254 14,000  Level New York Center
07:31PM 41.2792 -76.7894 191° South 221 254 14,000  Level New York Center
07:32PM 41.2119 -76.8028 188° South 240 276 14,000  Level New York Center
07:33PM 41.1425 -76.8158 188° South 246 283 14,000  Level New York Center
07:34PM 41.0772 -76.8294 189° South 246 283 14,000  Level New York Center
07:35PM 41.0119 -76.8400 187° South 246 283 14,000  Level New York Center
07:36PM 40.9444 -76.8561 190° South 246 283 14,000  Level New York Center
07:37PM 40.8878 -76.8675 189° South 236 272 14,000  Level New York Center
07:38PM 40.8119 -76.8800 187° South 242 278 14,000  Level New York Center
07:39PM 40.7550 -76.8967 193° South 237 273 14,000  Level New York Center
07:40PM 40.6850 -76.9178 193° South 237 273 14,000  Level New York Center
07:41PM 40.6300 -76.9347 193° South 237 273 14,000  Level New York Center
07:42PM 40.5600 -76.9558 193° South 237 273 14,000  Level New York Center
07:43PM 40.5047 -76.9756 195° South 237 273 14,000  Level New York Center
07:44PM 40.4369 -76.9967 193° South 232 267 14,000 -300 Level New York Center
07:45PM 40.3800 -77.0133 193° South 232 267 13,400 -1,080 Descending New York Center
07:47PM 40.2667 -77.0500 194° South 247 284 11,100 -1,380 Descending Potomac TRACON
07:48PM 40.2000 -77.0667 191° South 250 288 9,700 -1,020 Descending Potomac TRACON
07:49PM 40.1333 -77.0833 191° South 256 295 9,100 -300 Descending Potomac TRACON
07:50PM 40.0500 -77.1167 197° South 257 296 9,100  Level Potomac TRACON
07:51PM 39.9833 -77.1333 191° South 251 289 9,100  Level Potomac TRACON
07:52PM 39.9167 -77.1500 191° South 253 291 9,100 -60 Level Potomac TRACON
07:53PM 39.8500 -77.1833 201° Southwest 248 285 9,000 -600 Descending Potomac TRACON
07:54PM 39.7833 -77.2000 191° South 249 287 7,900 -1,200 Descending Potomac TRACON
07:55PM 39.7167 -77.2167 191° South 251 289 6,700 -1,200 Descending Potomac TRACON
07:56PM 39.6500 -77.2500 201° Southwest 268 308 5,500 -1,080 Descending Potomac TRACON
07:57PM 39.5667 -77.2667 189° South 272 313 4,600 -720 Descending Potomac TRACON
07:58PM 39.5000 -77.2833 191° South 264 304 4,100 -300 Descending Potomac TRACON
07:59PM 39.4333 -77.3167 201° Southwest 264 304 4,100  Level Potomac TRACON
08:00PM 39.3667 -77.3333 191° South 256 295 4,100  Level Potomac TRACON
08:01PM 39.3000 -77.3500 191° South 253 291 4,100  Level Potomac TRACON
08:02PM 39.2167 -77.3667 189° South 259 298 4,100  Level Potomac TRACON
08:03PM 39.1500 -77.3500 169° South 253 291 4,100 -180 Level Potomac TRACON
08:04PM 39.0667 -77.3500 180° South 261 300 3,800 -480 Descending Potomac TRACON
08:05PM 39.0000 -77.3500 180° South 252 290 3,200 -660 Descending Potomac TRACON
08:06PM 38.9500 -77.3500 180° South 196 226 2,500 -660 Descending Potomac TRACON
08:07PM 38.9000 -77.3667 195° South 174 200 1,900 -600 Descending Potomac TRACON
08:08PM 38.8833 -77.4000 237° Southwest 124 143 1,300 -600 Descending Potomac TRACON
08:09PM 38.9000 -77.4333 303° West 107 123 700 -600 Descending Potomac TRACON